Terminal Aerodrome Forecast
Issued by NWS

Home | Current Version | Previous Version | Text Only | Print | Product List | Glossary On
Versions: 1 2 3 4 5 6 7 8 9 10 11 12 13 14 15
000
FTUS41 KRNK 222320
TAFBCB
TAF
KBCB 222320Z 2300/2324 24004KT P6SM FEW250
     FM230700 00000KT P6SM SCT090
     FM230800 00000KT P6SM VCSH BKN050
     FM231400 29005KT P6SM BKN050
     FM231600 30007KT P6SM SCT050=

USA.gov is the U.S. government's official web portal to all federal, state and local government web resources and services.